Stella Prima — PHEA — position and weather

sailwx.info

Track history (hours):
 
Tides and Currents Weather Stations Pressure Air Temp Water Temp Dewpoint Dewpoint Depression Visibility Wind Speed Wind Dir Waves Ship Positions

Stella Prima

Last reported at 2014-Dec-22 20:32 UTC. Time now 2014-Dec-22 20:38 UTC.
Position N 53°32' E 009°59'.

Length 100 m; beam 21 m.

Type: Cargo ship. MMSI: 246460000.

Date/timePositionNaut miles runAvg speedWind from/ knotsBaromVisibWave heightAir tempDewpointWater temp
2014-Dec-22 20:32N 53°32' E 009°59'0 0.0
2014-Dec-22 19:32N 53°32' E 009°59'0 0.0
2014-Dec-22 18:29N 53°32' E 009°59'0 0.0
2014-Dec-22 17:32N 53°32' E 009°59'0 0.0
2014-Dec-22 16:32N 53°32' E 009°59'0 0.0
2014-Dec-22 15:32N 53°32' E 009°59'0 0.0
2014-Dec-22 14:32N 53°32' E 009°59'0 0.0
2014-Dec-22 13:32N 53°32' E 009°59'0 0.0
2014-Dec-22 12:26N 53°32' E 009°59'0 0.0
2014-Dec-22 11:32N 53°32' E 009°59'0 0.0
2014-Dec-22 10:32N 53°32' E 009°59'0 0.0
2014-Dec-22 09:26N 53°32' E 009°59'0 0.0
2014-Dec-22 08:32N 53°32' E 009°59'0 0.0
2014-Dec-22 07:32N 53°32' E 009°59'0 0.0
2014-Dec-22 06:32N 53°32' E 009°59'0 0.0
2014-Dec-22 05:32N 53°32' E 009°59'0 0.0
2014-Dec-22 04:32N 53°32' E 009°59'0 0.0
2014-Dec-22 03:32N 53°32' E 009°59'0 0.0
2014-Dec-22 02:32N 53°32' E 009°59'0 0.0
2014-Dec-22 01:32N 53°32' E 009°59'0 0.0
2014-Dec-22 00:29N 53°32' E 009°59'0 0.0
2014-Dec-21 23:32N 53°32' E 009°59'0 0.0
2014-Dec-21 22:32N 53°32' E 009°59'0 0.0
2014-Dec-21 21:32N 53°32' E 009°59'0 0.0
2014-Dec-21 20:32N 53°32' E 009°59'0 0.0
2014-Dec-21 19:32N 53°32' E 009°59'0 0.0
2014-Dec-21 18:32N 53°32' E 009°59'1 1.4
2014-Dec-21 17:34N 53°33' E 009°57'9 9.2
2014-Dec-21 16:33N 53°34' E 009°42'1010.5
2014-Dec-21 15:33N 53°42' E 009°30'1211.7
2014-Dec-21 14:33N 53°51' E 009°19'1111.5
2014-Dec-21 13:34N 53°51' E 008°59'1211.9
2014-Dec-21 12:34N 53°55' E 008°40'1312.7
2014-Dec-21 11:34N 53°59' E 008°20'2 2.4
2014-Dec-21 10:33N 53°59' E 008°24'3 2.6
2014-Dec-21 09:33N 53°59' E 008°19'1111.3
2014-Dec-21 08:32N 53°58' E 008°00'4614.4
2014-Dec-21 05:19N 53°48' E 006°44'2613.4
2014-Dec-21 03:22N 53°40' E 006°01'1012.4
2014-Dec-21 02:33N 53°37' E 005°45'1212.2
2014-Dec-21 01:33N 53°33' E 005°26'1211.8
2014-Dec-21 00:33N 53°29' E 005°07'1211.8
2014-Dec-20 23:33N 53°25' E 004°48'1010.1
2014-Dec-20 22:32N 53°17' E 004°38'10 9.7
2014-Dec-20 21:33N 53°08' E 004°31'10 9.7
2014-Dec-20 20:32N 52°60' E 004°23'9 8.9
2014-Dec-20 19:32N 52°52' E 004°16'11 9.3
2014-Dec-20 18:24N 52°43' E 004°06'7 8.2
2014-Dec-20 17:33N 52°38' E 003°59'1110.9
2014-Dec-20 16:32N 52°30' E 003°46'6512.9
2014-Dec-20 11:29N 51°42' E 002°34'1314.1
2014-Dec-20 10:33N 51°32' E 002°21'1313.2
2014-Dec-20 09:32N 51°20' E 002°11'1313.0
2014-Dec-20 08:34N 51°11' E 001°56'1313.4
2014-Dec-20 07:33N 51°03' E 001°39'1211.9
2014-Dec-20 06:33N 50°53' E 001°28'37512.1
2014-Dec-18 23:33N 47°32' W 006°35'  
Track history (hours):
 
Tides and Currents Weather Stations Pressure Air Temp Water Temp Dewpoint Dewpoint Depression Visibility Wind Speed Wind Dir Waves Ship Positions

Stella Prima

Last reported at 2014-Dec-22 20:32 UTC. Time now 2014-Dec-22 20:38 UTC.
Position N 53°32' E 009°59'.

Length 100 m; beam 21 m.

Type: Cargo ship. MMSI: 246460000.

Date/timePositionNaut miles runAvg speedWind from/ knotsBaromVisibWave heightAir tempDewpointWater temp
2014-Dec-22 20:32N 53°32' E 009°59'0 0.0
2014-Dec-22 19:32N 53°32' E 009°59'0 0.0
2014-Dec-22 18:29N 53°32' E 009°59'0 0.0
2014-Dec-22 17:32N 53°32' E 009°59'0 0.0
2014-Dec-22 16:32N 53°32' E 009°59'0 0.0
2014-Dec-22 15:32N 53°32' E 009°59'0 0.0
2014-Dec-22 14:32N 53°32' E 009°59'0 0.0
2014-Dec-22 13:32N 53°32' E 009°59'0 0.0
2014-Dec-22 12:26N 53°32' E 009°59'0 0.0
2014-Dec-22 11:32N 53°32' E 009°59'0 0.0
2014-Dec-22 10:32N 53°32' E 009°59'0 0.0
2014-Dec-22 09:26N 53°32' E 009°59'0 0.0
2014-Dec-22 08:32N 53°32' E 009°59'0 0.0
2014-Dec-22 07:32N 53°32' E 009°59'0 0.0
2014-Dec-22 06:32N 53°32' E 009°59'0 0.0
2014-Dec-22 05:32N 53°32' E 009°59'0 0.0
2014-Dec-22 04:32N 53°32' E 009°59'0 0.0
2014-Dec-22 03:32N 53°32' E 009°59'0 0.0
2014-Dec-22 02:32N 53°32' E 009°59'0 0.0
2014-Dec-22 01:32N 53°32' E 009°59'0 0.0
2014-Dec-22 00:29N 53°32' E 009°59'0 0.0
2014-Dec-21 23:32N 53°32' E 009°59'0 0.0
2014-Dec-21 22:32N 53°32' E 009°59'0 0.0
2014-Dec-21 21:32N 53°32' E 009°59'0 0.0
2014-Dec-21 20:32N 53°32' E 009°59'0 0.0
2014-Dec-21 19:32N 53°32' E 009°59'0 0.0
2014-Dec-21 18:32N 53°32' E 009°59'1 1.4
2014-Dec-21 17:34N 53°33' E 009°57'9 9.2
2014-Dec-21 16:33N 53°34' E 009°42'1010.5
2014-Dec-21 15:33N 53°42' E 009°30'1211.7
2014-Dec-21 14:33N 53°51' E 009°19'1111.5
2014-Dec-21 13:34N 53°51' E 008°59'1211.9
2014-Dec-21 12:34N 53°55' E 008°40'1312.7
2014-Dec-21 11:34N 53°59' E 008°20'2 2.4
2014-Dec-21 10:33N 53°59' E 008°24'3 2.6
2014-Dec-21 09:33N 53°59' E 008°19'1111.3
2014-Dec-21 08:32N 53°58' E 008°00'4614.4
2014-Dec-21 05:19N 53°48' E 006°44'2613.4
2014-Dec-21 03:22N 53°40' E 006°01'1012.4
2014-Dec-21 02:33N 53°37' E 005°45'1212.2
2014-Dec-21 01:33N 53°33' E 005°26'1211.8
2014-Dec-21 00:33N 53°29' E 005°07'1211.8
2014-Dec-20 23:33N 53°25' E 004°48'1010.1
2014-Dec-20 22:32N 53°17' E 004°38'10 9.7
2014-Dec-20 21:33N 53°08' E 004°31'10 9.7
2014-Dec-20 20:32N 52°60' E 004°23'9 8.9
2014-Dec-20 19:32N 52°52' E 004°16'11 9.3
2014-Dec-20 18:24N 52°43' E 004°06'7 8.2
2014-Dec-20 17:33N 52°38' E 003°59'1110.9
2014-Dec-20 16:32N 52°30' E 003°46'6512.9
2014-Dec-20 11:29N 51°42' E 002°34'1314.1
2014-Dec-20 10:33N 51°32' E 002°21'1313.2
2014-Dec-20 09:32N 51°20' E 002°11'1313.0
2014-Dec-20 08:34N 51°11' E 001°56'1313.4
2014-Dec-20 07:33N 51°03' E 001°39'1211.9
2014-Dec-20 06:33N 50°53' E 001°28'37512.1
2014-Dec-18 23:33N 47°32' W 006°35'  

Dump ship's entire track history